createdAt,value
2022-09-06T00:04:24.291Z,2.00
2022-09-06T00:19:26.263Z,1.90
2022-09-06T00:34:29.031Z,1.95
2022-09-06T00:49:43.981Z,1.98
2022-09-06T01:04:48.562Z,1.83
2022-09-06T01:20:27.826Z,1.83
2022-09-06T01:35:42.063Z,1.75
2022-09-06T01:50:58.182Z,1.77
2022-09-06T02:06:07.204Z,1.83
2022-09-06T02:21:11.662Z,1.65
2022-09-06T02:36:16.056Z,1.50
2022-09-06T02:51:18.471Z,1.88
2022-09-06T03:06:20.503Z,1.92
2022-09-06T03:21:22.541Z,1.50
2022-09-06T03:36:24.593Z,1.90
2022-09-06T03:51:26.680Z,1.80
2022-09-06T04:06:29.050Z,1.85
2022-09-06T04:21:31.627Z,1.80
2022-09-06T04:36:33.604Z,2.03
2022-09-06T04:51:35.620Z,2.55
2022-09-06T05:06:44.763Z,2.20
2022-09-06T05:21:46.960Z,2.70
2022-09-06T05:36:49.034Z,3.03
2022-09-06T05:51:53.042Z,2.90
2022-09-06T06:06:55.043Z,2.90
2022-09-06T06:21:58.644Z,1.73
2022-09-06T06:37:00.712Z,1.38
2022-09-06T06:52:02.882Z,1.20
2022-09-06T07:22:27.663Z,1.45
2022-09-06T07:37:29.661Z,0.65
2022-09-06T08:23:15.850Z,0.80
2022-09-06T08:38:17.903Z,0.60
2022-09-06T08:53:20.398Z,0.43
2022-09-06T09:08:28.713Z,0.40
2022-09-06T09:23:31.412Z,0.50
2022-09-06T09:38:45.159Z,0.40
2022-09-06T09:53:59.151Z,0.40
2022-09-06T10:09:31.932Z,0.47
2022-09-06T17:24:37.382Z,1.60
2022-09-06T17:39:40.681Z,3.00
2022-09-06T17:54:44.829Z,5.22
2022-09-06T18:09:47.812Z,2.78
2022-09-06T18:24:51.023Z,1.90
2022-09-06T18:39:55.129Z,3.65
2022-09-06T18:54:57.213Z,2.92
2022-09-06T19:09:59.261Z,2.63
2022-09-06T19:25:01.609Z,2.90
2022-09-06T19:40:04.369Z,4.15
2022-09-06T19:55:08.140Z,4.13
2022-09-06T20:10:10.649Z,4.97
2022-09-06T20:25:12.700Z,6.20
2022-09-06T20:40:14.976Z,5.25
2022-09-06T20:55:17.127Z,5.30
2022-09-06T21:10:19.113Z,4.97
2022-09-06T21:25:21.148Z,5.43
2022-09-06T21:40:23.177Z,5.60
2022-09-06T21:55:25.229Z,5.68
2022-09-06T22:10:28.214Z,5.95
2022-09-06T22:25:31.474Z,6.90
2022-09-06T22:40:33.554Z,6.65
2022-09-06T22:55:36.076Z,7.47
2022-09-06T23:10:43.154Z,6.15
2022-09-06T23:25:45.127Z,5.72
2022-09-06T23:40:47.154Z,6.93
2022-09-06T23:55:49.234Z,7.38
